sensor_id;sensor_type;location;lat;lon;timestamp;temperature;humidity
2621;DHT22;1320;48.128;11.592;2022-12-18T00:02:15;-1.70;99.90
2621;DHT22;1320;48.128;11.592;2022-12-18T00:04:41;-1.70;99.90
2621;DHT22;1320;48.128;11.592;2022-12-18T00:07:06;-1.70;99.90
2621;DHT22;1320;48.128;11.592;2022-12-18T00:09:32;-1.70;99.90
2621;DHT22;1320;48.128;11.592;2022-12-18T00:11:58;-1.70;99.90
2621;DHT22;1320;48.128;11.592;2022-12-18T00:14:23;-1.70;99.90
2621;DHT22;1320;48.128;11.592;2022-12-18T00:16:49;-1.70;99.90
2621;DHT22;1320;48.128;11.592;2022-12-18T00:19:15;-1.80;99.90
2621;DHT22;1320;48.128;11.592;2022-12-18T00:21:42;-1.80;99.90
2621;DHT22;1320;48.128;11.592;2022-12-18T00:24:08;-1.70;99.90
2621;DHT22;1320;48.128;11.592;2022-12-18T00:26:36;-1.80;99.90
2621;DHT22;1320;48.128;11.592;2022-12-18T00:29:12;-1.80;99.90
2621;DHT22;1320;48.128;11.592;2022-12-18T00:31:42;-1.80;99.90
2621;DHT22;1320;48.128;11.592;2022-12-18T00:34:12;-1.80;99.90
2621;DHT22;1320;48.128;11.592;2022-12-18T00:36:39;-1.80;99.90
2621;DHT22;1320;48.128;11.592;2022-12-18T00:39:05;-1.90;99.90
2621;DHT22;1320;48.128;11.592;2022-12-18T00:41:31;-1.90;99.90
2621;DHT22;1320;48.128;11.592;2022-12-18T00:44:17;-1.80;99.90
2621;DHT22;1320;48.128;11.592;2022-12-18T00:46:43;-1.80;99.90
2621;DHT22;1320;48.128;11.592;2022-12-18T00:49:13;-1.70;99.90
2621;DHT22;1320;48.128;11.592;2022-12-18T00:51:40;-1.80;99.90
2621;DHT22;1320;48.128;11.592;2022-12-18T00:54:06;-1.70;99.90
2621;DHT22;1320;48.128;11.592;2022-12-18T00:56:31;-1.70;99.90
2621;DHT22;1320;48.128;11.592;2022-12-18T00:58:57;-1.80;99.90
2621;DHT22;1320;48.128;11.592;2022-12-18T01:01:23;-1.80;99.90
2621;DHT22;1320;48.128;11.592;2022-12-18T01:03:48;-1.80;99.90
2621;DHT22;1320;48.128;11.592;2022-12-18T01:06:15;-1.80;99.90
2621;DHT22;1320;48.128;11.592;2022-12-18T01:08:41;-1.80;99.90
2621;DHT22;1320;48.128;11.592;2022-12-18T01:11:09;-1.80;99.90
2621;DHT22;1320;48.128;11.592;2022-12-18T01:13:35;-1.80;99.90
2621;DHT22;1320;48.128;11.592;2022-12-18T01:16:00;-1.80;99.90
2621;DHT22;1320;48.128;11.592;2022-12-18T01:18:26;-1.80;99.90
2621;DHT22;1320;48.128;11.592;2022-12-18T01:20:51;-1.80;99.90
2621;DHT22;1320;48.128;11.592;2022-12-18T01:23:17;-1.90;99.90
2621;DHT22;1320;48.128;11.592;2022-12-18T01:25:43;-1.90;99.90
2621;DHT22;1320;48.128;11.592;2022-12-18T01:28:08;-1.80;99.90
2621;DHT22;1320;48.128;11.592;2022-12-18T01:30:34;-1.80;99.90
2621;DHT22;1320;48.128;11.592;2022-12-18T01:33:00;-1.80;99.90
2621;DHT22;1320;48.128;11.592;2022-12-18T01:35:25;-1.80;99.90
2621;DHT22;1320;48.128;11.592;2022-12-18T01:37:54;-1.80;99.90
2621;DHT22;1320;48.128;11.592;2022-12-18T01:40:20;-1.80;99.90
2621;DHT22;1320;48.128;11.592;2022-12-18T01:42:53;-1.70;99.90
2621;DHT22;1320;48.128;11.592;2022-12-18T01:47:48;-1.70;99.90
2621;DHT22;1320;48.128;11.592;2022-12-18T01:50:29;-1.70;99.90
2621;DHT22;1320;48.128;11.592;2022-12-18T01:52:59;-1.70;99.90
2621;DHT22;1320;48.128;11.592;2022-12-18T01:55:29;-1.70;99.90
2621;DHT22;1320;48.128;11.592;2022-12-18T01:57:58;-1.80;99.90
2621;DHT22;1320;48.128;11.592;2022-12-18T02:00:25;-1.80;99.90
2621;DHT22;1320;48.128;11.592;2022-12-18T02:02:52;-1.80;99.90
2621;DHT22;1320;48.128;11.592;2022-12-18T02:05:40;-1.90;99.90
2621;DHT22;1320;48.128;11.592;2022-12-18T02:08:22;-1.90;99.90
2621;DHT22;1320;48.128;11.592;2022-12-18T02:11:24;-1.80;99.90
2621;DHT22;1320;48.128;11.592;2022-12-18T02:14:02;-1.80;99.90
2621;DHT22;1320;48.128;11.592;2022-12-18T02:16:45;-1.80;99.90
2621;DHT22;1320;48.128;11.592;2022-12-18T02:27:37;-1.70;99.90
2621;DHT22;1320;48.128;11.592;2022-12-18T02:30:06;-1.80;99.90
2621;DHT22;1320;48.128;11.592;2022-12-18T02:32:39;-1.70;99.90
2621;DHT22;1320;48.128;11.592;2022-12-18T02:35:08;-1.70;99.90
2621;DHT22;1320;48.128;11.592;2022-12-18T02:37:35;-1.70;99.90
2621;DHT22;1320;48.128;11.592;2022-12-18T02:40:03;-1.70;99.90
2621;DHT22;1320;48.128;11.592;2022-12-18T02:42:29;-1.80;99.90
2621;DHT22;1320;48.128;11.592;2022-12-18T02:44:56;-1.80;99.90
2621;DHT22;1320;48.128;11.592;2022-12-18T02:47:24;-1.80;99.90
2621;DHT22;1320;48.128;11.592;2022-12-18T02:52:49;-1.80;99.90
2621;DHT22;1320;48.128;11.592;2022-12-18T03:03:47;-1.80;99.90
2621;DHT22;1320;48.128;11.592;2022-12-18T03:06:27;-1.90;99.90
2621;DHT22;1320;48.128;11.592;2022-12-18T03:09:02;-1.90;99.90
2621;DHT22;1320;48.128;11.592;2022-12-18T03:11:30;-1.90;99.90
2621;DHT22;1320;48.128;11.592;2022-12-18T03:14:19;-1.90;99.90
2621;DHT22;1320;48.128;11.592;2022-12-18T03:16:47;-1.90;99.90
2621;DHT22;1320;48.128;11.592;2022-12-18T03:19:22;-1.90;99.90
2621;DHT22;1320;48.128;11.592;2022-12-18T03:21:53;-1.90;99.90
2621;DHT22;1320;48.128;11.592;2022-12-18T03:24:20;-1.90;99.90
2621;DHT22;1320;48.128;11.592;2022-12-18T03:26:50;-1.80;99.90
2621;DHT22;1320;48.128;11.592;2022-12-18T03:29:21;-1.80;99.90
2621;DHT22;1320;48.128;11.592;2022-12-18T03:31:53;-1.80;99.90
2621;DHT22;1320;48.128;11.592;2022-12-18T03:34:26;-1.80;99.90
2621;DHT22;1320;48.128;11.592;2022-12-18T03:36:54;-1.70;99.90
2621;DHT22;1320;48.128;11.592;2022-12-18T03:39:20;-1.70;99.90
2621;DHT22;1320;48.128;11.592;2022-12-18T03:44:43;-1.70;99.90
2621;DHT22;1320;48.128;11.592;2022-12-18T03:47:57;-1.70;99.90
2621;DHT22;1320;48.128;11.592;2022-12-18T03:50:43;-1.70;99.90
2621;DHT22;1320;48.128;11.592;2022-12-18T03:55:40;-1.70;99.90
2621;DHT22;1320;48.128;11.592;2022-12-18T03:58:07;-1.70;99.90
2621;DHT22;1320;48.128;11.592;2022-12-18T04:00:34;-1.70;99.90
2621;DHT22;1320;48.128;11.592;2022-12-18T04:03:01;-1.70;99.90
2621;DHT22;1320;48.128;11.592;2022-12-18T04:05:28;-1.70;99.90
2621;DHT22;1320;48.128;11.592;2022-12-18T04:07:56;-1.70;99.90
2621;DHT22;1320;48.128;11.592;2022-12-18T04:10:22;-1.80;99.90
2621;DHT22;1320;48.128;11.592;2022-12-18T04:12:48;-1.80;99.90
2621;DHT22;1320;48.128;11.592;2022-12-18T04:15:14;-1.80;99.90
2621;DHT22;1320;48.128;11.592;2022-12-18T04:17:49;-1.70;99.90
2621;DHT22;1320;48.128;11.592;2022-12-18T04:20:15;-1.70;99.90
2621;DHT22;1320;48.128;11.592;2022-12-18T04:22:40;-1.70;99.90
2621;DHT22;1320;48.128;11.592;2022-12-18T04:25:06;-1.70;99.90
2621;DHT22;1320;48.128;11.592;2022-12-18T04:27:32;-1.70;99.90
2621;DHT22;1320;48.128;11.592;2022-12-18T04:29:57;-1.70;99.90
2621;DHT22;1320;48.128;11.592;2022-12-18T04:32:23;-1.70;99.90
2621;DHT22;1320;48.128;11.592;2022-12-18T04:34:49;-1.70;99.90
2621;DHT22;1320;48.128;11.592;2022-12-18T04:37:14;-1.70;99.90
2621;DHT22;1320;48.128;11.592;2022-12-18T04:39:40;-1.70;99.90
2621;DHT22;1320;48.128;11.592;2022-12-18T04:42:05;-1.70;99.90
2621;DHT22;1320;48.128;11.592;2022-12-18T04:44:31;-1.70;99.90
2621;DHT22;1320;48.128;11.592;2022-12-18T04:46:57;-1.70;99.90
2621;DHT22;1320;48.128;11.592;2022-12-18T04:49:22;-1.70;99.90
2621;DHT22;1320;48.128;11.592;2022-12-18T04:51:48;-1.70;99.90
2621;DHT22;1320;48.128;11.592;2022-12-18T04:54:13;-1.70;99.90
2621;DHT22;1320;48.128;11.592;2022-12-18T04:56:39;-1.80;99.90
2621;DHT22;1320;48.128;11.592;2022-12-18T04:59:05;-1.80;99.90
2621;DHT22;1320;48.128;11.592;2022-12-18T05:01:34;-1.80;99.90
2621;DHT22;1320;48.128;11.592;2022-12-18T05:04:00;-1.80;99.90
2621;DHT22;1320;48.128;11.592;2022-12-18T05:06:25;-1.70;99.90
2621;DHT22;1320;48.128;11.592;2022-12-18T05:08:51;-1.70;99.90
2621;DHT22;1320;48.128;11.592;2022-12-18T05:11:17;-1.70;99.90
2621;DHT22;1320;48.128;11.592;2022-12-18T05:13:44;-1.60;99.90
2621;DHT22;1320;48.128;11.592;2022-12-18T05:16:10;-1.60;99.90
2621;DHT22;1320;48.128;11.592;2022-12-18T05:18:36;-1.60;99.90
2621;DHT22;1320;48.128;11.592;2022-12-18T05:21:02;-1.70;99.90
2621;DHT22;1320;48.128;11.592;2022-12-18T05:23:28;-1.70;99.90
2621;DHT22;1320;48.128;11.592;2022-12-18T05:25:56;-1.70;99.90
2621;DHT22;1320;48.128;11.592;2022-12-18T05:28:23;-1.70;99.90
2621;DHT22;1320;48.128;11.592;2022-12-18T05:30:54;-1.70;99.90
2621;DHT22;1320;48.128;11.592;2022-12-18T05:33:21;-1.70;99.90
2621;DHT22;1320;48.128;11.592;2022-12-18T05:35:51;-1.70;99.90
2621;DHT22;1320;48.128;11.592;2022-12-18T05:38:18;-1.70;99.90
2621;DHT22;1320;48.128;11.592;2022-12-18T05:40:44;-1.70;99.90
2621;DHT22;1320;48.128;11.592;2022-12-18T05:43:10;-1.70;99.90
2621;DHT22;1320;48.128;11.592;2022-12-18T05:45:39;-1.70;99.90
2621;DHT22;1320;48.128;11.592;2022-12-18T05:48:06;-1.70;99.90
2621;DHT22;1320;48.128;11.592;2022-12-18T05:50:39;-1.70;99.90
2621;DHT22;1320;48.128;11.592;2022-12-18T05:53:06;-1.70;99.90
2621;DHT22;1320;48.128;11.592;2022-12-18T05:55:39;-1.80;99.90
2621;DHT22;1320;48.128;11.592;2022-12-18T05:58:06;-1.70;99.90
2621;DHT22;1320;48.128;11.592;2022-12-18T06:00:33;-1.80;99.90
2621;DHT22;1320;48.128;11.592;2022-12-18T06:03:00;-1.80;99.90
2621;DHT22;1320;48.128;11.592;2022-12-18T06:05:26;-1.90;99.90
2621;DHT22;1320;48.128;11.592;2022-12-18T06:07:52;-1.80;99.90
2621;DHT22;1320;48.128;11.592;2022-12-18T06:10:17;-1.80;99.90
2621;DHT22;1320;48.128;11.592;2022-12-18T06:12:43;-1.80;99.90
2621;DHT22;1320;48.128;11.592;2022-12-18T06:15:09;-1.80;99.90
2621;DHT22;1320;48.128;11.592;2022-12-18T06:17:36;-1.70;99.90
2621;DHT22;1320;48.128;11.592;2022-12-18T06:20:02;-1.70;99.90
2621;DHT22;1320;48.128;11.592;2022-12-18T06:22:31;-1.70;99.90
2621;DHT22;1320;48.128;11.592;2022-12-18T06:24:57;-1.80;99.90
2621;DHT22;1320;48.128;11.592;2022-12-18T06:27:23;-1.80;99.90
2621;DHT22;1320;48.128;11.592;2022-12-18T06:29:48;-1.80;99.90
2621;DHT22;1320;48.128;11.592;2022-12-18T06:32:14;-1.80;99.90
2621;DHT22;1320;48.128;11.592;2022-12-18T06:34:39;-1.80;99.90
2621;DHT22;1320;48.128;11.592;2022-12-18T06:37:05;-1.80;99.90
2621;DHT22;1320;48.128;11.592;2022-12-18T06:39:31;-1.80;99.90
2621;DHT22;1320;48.128;11.592;2022-12-18T06:41:56;-1.80;99.90
2621;DHT22;1320;48.128;11.592;2022-12-18T06:44:22;-1.80;99.90
2621;DHT22;1320;48.128;11.592;2022-12-18T06:46:48;-1.80;99.90
2621;DHT22;1320;48.128;11.592;2022-12-18T06:49:14;-1.90;99.90
2621;DHT22;1320;48.128;11.592;2022-12-18T06:51:41;-1.90;99.90
2621;DHT22;1320;48.128;11.592;2022-12-18T06:54:07;-1.90;99.90
2621;DHT22;1320;48.128;11.592;2022-12-18T06:56:33;-2.00;99.90
2621;DHT22;1320;48.128;11.592;2022-12-18T06:58:58;-2.00;99.90
2621;DHT22;1320;48.128;11.592;2022-12-18T07:01:24;-2.10;99.90
2621;DHT22;1320;48.128;11.592;2022-12-18T07:03:54;-2.10;99.90
2621;DHT22;1320;48.128;11.592;2022-12-18T07:06:22;-2.20;99.90
2621;DHT22;1320;48.128;11.592;2022-12-18T07:08:49;-2.10;99.90
2621;DHT22;1320;48.128;11.592;2022-12-18T07:11:16;-2.10;99.90
2621;DHT22;1320;48.128;11.592;2022-12-18T07:13:42;-2.10;99.90
2621;DHT22;1320;48.128;11.592;2022-12-18T07:16:27;-2.10;99.90
2621;DHT22;1320;48.128;11.592;2022-12-18T07:18:56;-2.00;99.90
2621;DHT22;1320;48.128;11.592;2022-12-18T07:21:22;-2.00;99.90
2621;DHT22;1320;48.128;11.592;2022-12-18T07:23:49;-2.10;99.90
2621;DHT22;1320;48.128;11.592;2022-12-18T07:26:16;-2.10;99.90
2621;DHT22;1320;48.128;11.592;2022-12-18T07:28:42;-2.10;99.90
2621;DHT22;1320;48.128;11.592;2022-12-18T07:31:16;-2.00;99.90
2621;DHT22;1320;48.128;11.592;2022-12-18T07:33:42;-2.10;99.90
2621;DHT22;1320;48.128;11.592;2022-12-18T07:36:09;-2.10;99.90
2621;DHT22;1320;48.128;11.592;2022-12-18T07:38:35;-2.10;99.90
2621;DHT22;1320;48.128;11.592;2022-12-18T07:41:05;-2.10;99.90
2621;DHT22;1320;48.128;11.592;2022-12-18T07:43:32;-2.10;99.90
2621;DHT22;1320;48.128;11.592;2022-12-18T07:45:57;-2.00;99.90
2621;DHT22;1320;48.128;11.592;2022-12-18T07:48:23;-2.00;99.90
2621;DHT22;1320;48.128;11.592;2022-12-18T07:50:49;-2.00;99.90
2621;DHT22;1320;48.128;11.592;2022-12-18T07:53:14;-2.00;99.90
2621;DHT22;1320;48.128;11.592;2022-12-18T07:55:41;-2.00;99.90
2621;DHT22;1320;48.128;11.592;2022-12-18T07:58:07;-2.00;99.90
2621;DHT22;1320;48.128;11.592;2022-12-18T08:00:34;-2.00;99.90
2621;DHT22;1320;48.128;11.592;2022-12-18T08:03:00;-2.00;99.90
2621;DHT22;1320;48.128;11.592;2022-12-18T08:05:26;-2.00;99.90
2621;DHT22;1320;48.128;11.592;2022-12-18T08:07:52;-1.90;99.90
2621;DHT22;1320;48.128;11.592;2022-12-18T08:10:18;-1.90;99.90
2621;DHT22;1320;48.128;11.592;2022-12-18T08:12:44;-1.90;99.90
2621;DHT22;1320;48.128;11.592;2022-12-18T08:15:10;-1.90;99.90
2621;DHT22;1320;48.128;11.592;2022-12-18T08:17:36;-2.00;99.90
2621;DHT22;1320;48.128;11.592;2022-12-18T08:20:01;-2.00;99.90
2621;DHT22;1320;48.128;11.592;2022-12-18T08:22:27;-1.90;99.90
2621;DHT22;1320;48.128;11.592;2022-12-18T08:24:53;-1.90;99.90
2621;DHT22;1320;48.128;11.592;2022-12-18T08:27:18;-1.90;99.90
2621;DHT22;1320;48.128;11.592;2022-12-18T08:29:44;-1.90;99.90
2621;DHT22;1320;48.128;11.592;2022-12-18T08:32:10;-1.90;99.90
2621;DHT22;1320;48.128;11.592;2022-12-18T08:34:35;-1.90;99.90
2621;DHT22;1320;48.128;11.592;2022-12-18T08:37:01;-1.90;99.90
2621;DHT22;1320;48.128;11.592;2022-12-18T08:39:27;-1.90;99.90
2621;DHT22;1320;48.128;11.592;2022-12-18T08:41:52;-1.90;99.90
2621;DHT22;1320;48.128;11.592;2022-12-18T08:44:36;-1.90;99.90
2621;DHT22;1320;48.128;11.592;2022-12-18T08:47:06;-1.90;99.90
2621;DHT22;1320;48.128;11.592;2022-12-18T08:49:32;-1.90;99.90
2621;DHT22;1320;48.128;11.592;2022-12-18T08:51:58;-1.90;99.90
2621;DHT22;1320;48.128;11.592;2022-12-18T08:54:24;-1.90;99.90
2621;DHT22;1320;48.128;11.592;2022-12-18T08:56:50;-2.00;99.90
2621;DHT22;1320;48.128;11.592;2022-12-18T08:59:16;-2.10;99.90
2621;DHT22;1320;48.128;11.592;2022-12-18T09:01:42;-2.10;99.90
2621;DHT22;1320;48.128;11.592;2022-12-18T09:04:09;-2.10;99.90
2621;DHT22;1320;48.128;11.592;2022-12-18T09:06:35;-2.10;99.90
2621;DHT22;1320;48.128;11.592;2022-12-18T09:09:01;-2.00;99.90
2621;DHT22;1320;48.128;11.592;2022-12-18T09:11:27;-2.10;99.90
2621;DHT22;1320;48.128;11.592;2022-12-18T09:13:54;-2.10;99.90
2621;DHT22;1320;48.128;11.592;2022-12-18T09:16:20;-2.10;99.90
2621;DHT22;1320;48.128;11.592;2022-12-18T09:18:47;-2.00;99.90
2621;DHT22;1320;48.128;11.592;2022-12-18T09:21:18;-2.00;99.90
2621;DHT22;1320;48.128;11.592;2022-12-18T09:23:48;-2.00;99.90
2621;DHT22;1320;48.128;11.592;2022-12-18T09:26:14;-2.00;99.90
2621;DHT22;1320;48.128;11.592;2022-12-18T09:28:40;-2.00;99.90
2621;DHT22;1320;48.128;11.592;2022-12-18T09:31:07;-2.00;99.90
2621;DHT22;1320;48.128;11.592;2022-12-18T09:33:34;-2.00;99.90
2621;DHT22;1320;48.128;11.592;2022-12-18T09:36:03;-2.00;99.90
2621;DHT22;1320;48.128;11.592;2022-12-18T09:38:29;-2.00;99.90
2621;DHT22;1320;48.128;11.592;2022-12-18T09:41:01;-2.10;99.90
2621;DHT22;1320;48.128;11.592;2022-12-18T09:43:36;-2.10;99.90
2621;DHT22;1320;48.128;11.592;2022-12-18T09:46:06;-2.10;99.90
2621;DHT22;1320;48.128;11.592;2022-12-18T09:48:40;-2.00;99.90
2621;DHT22;1320;48.128;11.592;2022-12-18T09:51:19;-1.90;99.90
2621;DHT22;1320;48.128;11.592;2022-12-18T09:54:15;-1.90;99.90
2621;DHT22;1320;48.128;11.592;2022-12-18T09:56:41;-1.70;99.90
2621;DHT22;1320;48.128;11.592;2022-12-18T10:01:43;-1.60;99.90
2621;DHT22;1320;48.128;11.592;2022-12-18T10:04:09;-1.60;99.90
2621;DHT22;1320;48.128;11.592;2022-12-18T10:09:37;-1.60;99.90
2621;DHT22;1320;48.128;11.592;2022-12-18T10:20:09;-1.70;99.90
2621;DHT22;1320;48.128;11.592;2022-12-18T10:23:03;-1.70;99.90
2621;DHT22;1320;48.128;11.592;2022-12-18T10:28:18;-1.70;99.90
2621;DHT22;1320;48.128;11.592;2022-12-18T10:30:45;-1.70;99.90
2621;DHT22;1320;48.128;11.592;2022-12-18T10:33:22;-1.70;99.90
2621;DHT22;1320;48.128;11.592;2022-12-18T10:35:52;-1.60;99.90
2621;DHT22;1320;48.128;11.592;2022-12-18T10:43:30;-1.50;99.90
2621;DHT22;1320;48.128;11.592;2022-12-18T10:51:33;-1.60;99.90
2621;DHT22;1320;48.128;11.592;2022-12-18T10:54:21;-1.50;99.90
2621;DHT22;1320;48.128;11.592;2022-12-18T10:56:47;-1.50;99.90
2621;DHT22;1320;48.128;11.592;2022-12-18T10:59:16;-1.50;99.90
2621;DHT22;1320;48.128;11.592;2022-12-18T11:02:00;-1.40;99.90
2621;DHT22;1320;48.128;11.592;2022-12-18T11:04:30;-1.40;99.90
2621;DHT22;1320;48.128;11.592;2022-12-18T11:07:08;-1.30;99.90
2621;DHT22;1320;48.128;11.592;2022-12-18T11:09:39;-1.30;99.90
2621;DHT22;1320;48.128;11.592;2022-12-18T11:12:19;-1.30;99.90
2621;DHT22;1320;48.128;11.592;2022-12-18T11:17:30;-1.20;99.90
2621;DHT22;1320;48.128;11.592;2022-12-18T11:20:35;-1.20;99.90
2621;DHT22;1320;48.128;11.592;2022-12-18T11:23:05;-1.10;99.90
2621;DHT22;1320;48.128;11.592;2022-12-18T11:25:36;-1.10;99.90
2621;DHT22;1320;48.128;11.592;2022-12-18T11:28:04;-1.00;99.90
2621;DHT22;1320;48.128;11.592;2022-12-18T11:30:31;-1.00;99.90
2621;DHT22;1320;48.128;11.592;2022-12-18T11:35:52;-1.00;99.90
2621;DHT22;1320;48.128;11.592;2022-12-18T11:38:39;-1.00;99.90
2621;DHT22;1320;48.128;11.592;2022-12-18T11:41:09;-1.00;99.90
2621;DHT22;1320;48.128;11.592;2022-12-18T11:43:54;-0.90;99.90
2621;DHT22;1320;48.128;11.592;2022-12-18T11:46:32;-0.90;99.90
2621;DHT22;1320;48.128;11.592;2022-12-18T11:49:12;-0.90;99.90
2621;DHT22;1320;48.128;11.592;2022-12-18T11:51:54;-0.90;99.90
2621;DHT22;1320;48.128;11.592;2022-12-18T11:54:21;-0.90;99.90
2621;DHT22;1320;48.128;11.592;2022-12-18T11:56:50;-0.80;99.90
2621;DHT22;1320;48.128;11.592;2022-12-18T12:13:53;-1.10;99.90
2621;DHT22;1320;48.128;11.592;2022-12-18T12:16:29;-1.10;99.90
2621;DHT22;1320;48.128;11.592;2022-12-18T12:25:57;-1.20;99.90
2621;DHT22;1320;48.128;11.592;2022-12-18T12:28:04;-1.10;99.90
2621;DHT22;1320;48.128;11.592;2022-12-18T12:33:56;-1.00;99.90
2621;DHT22;1320;48.128;11.592;2022-12-18T12:39:13;-1.00;99.90
2621;DHT22;1320;48.128;11.592;2022-12-18T12:41:41;-1.00;99.90
2621;DHT22;1320;48.128;11.592;2022-12-18T12:44:44;-1.00;99.90
2621;DHT22;1320;48.128;11.592;2022-12-18T12:47:41;-1.10;99.90
2621;DHT22;1320;48.128;11.592;2022-12-18T12:50:17;-1.10;99.90
2621;DHT22;1320;48.128;11.592;2022-12-18T12:52:47;-1.20;99.90
2621;DHT22;1320;48.128;11.592;2022-12-18T12:55:21;-1.20;99.90
2621;DHT22;1320;48.128;11.592;2022-12-18T12:58:14;-1.20;99.90
2621;DHT22;1320;48.128;11.592;2022-12-18T13:06:37;-1.10;99.90
2621;DHT22;1320;48.128;11.592;2022-12-18T13:09:05;-1.20;99.90
2621;DHT22;1320;48.128;11.592;2022-12-18T13:11:43;-1.20;99.90
2621;DHT22;1320;48.128;11.592;2022-12-18T13:14:30;-1.30;99.90
2621;DHT22;1320;48.128;11.592;2022-12-18T13:20:16;-1.20;99.90
2621;DHT22;1320;48.128;11.592;2022-12-18T13:22:44;-1.20;99.90
2621;DHT22;1320;48.128;11.592;2022-12-18T13:30:56;-1.10;99.90
2621;DHT22;1320;48.128;11.592;2022-12-18T13:36:35;-1.20;99.90
2621;DHT22;1320;48.128;11.592;2022-12-18T13:38:44;-1.20;99.90
2621;DHT22;1320;48.128;11.592;2022-12-18T13:41:23;-1.20;99.90
2621;DHT22;1320;48.128;11.592;2022-12-18T13:43:56;-1.20;99.90
2621;DHT22;1320;48.128;11.592;2022-12-18T13:46:48;-1.20;99.90
2621;DHT22;1320;48.128;11.592;2022-12-18T13:51:56;-1.10;99.90
2621;DHT22;1320;48.128;11.592;2022-12-18T13:54:37;-1.20;99.90
2621;DHT22;1320;48.128;11.592;2022-12-18T13:57:05;-1.20;99.90
2621;DHT22;1320;48.128;11.592;2022-12-18T13:59:49;-1.20;99.90
2621;DHT22;1320;48.128;11.592;2022-12-18T14:02:17;-1.20;99.90
2621;DHT22;1320;48.128;11.592;2022-12-18T14:04:45;-1.30;99.90
2621;DHT22;1320;48.128;11.592;2022-12-18T14:09:50;-1.30;99.90
2621;DHT22;1320;48.128;11.592;2022-12-18T14:12:35;-1.50;99.90
2621;DHT22;1320;48.128;11.592;2022-12-18T14:20:22;-1.80;99.90
2621;DHT22;1320;48.128;11.592;2022-12-18T14:22:49;-1.80;99.90
2621;DHT22;1320;48.128;11.592;2022-12-18T14:25:27;-1.70;99.90
2621;DHT22;1320;48.128;11.592;2022-12-18T14:30:40;-1.50;99.90
2621;DHT22;1320;48.128;11.592;2022-12-18T14:33:17;-1.50;99.90
2621;DHT22;1320;48.128;11.592;2022-12-18T14:38:35;-1.50;99.90
2621;DHT22;1320;48.128;11.592;2022-12-18T14:41:08;-1.50;99.90
2621;DHT22;1320;48.128;11.592;2022-12-18T14:43:37;-1.50;99.90
2621;DHT22;1320;48.128;11.592;2022-12-18T14:46:05;-1.50;99.90
2621;DHT22;1320;48.128;11.592;2022-12-18T14:48:39;-1.40;99.90
2621;DHT22;1320;48.128;11.592;2022-12-18T14:51:23;-1.50;99.90
2621;DHT22;1320;48.128;11.592;2022-12-18T14:54:04;-1.50;99.90
2621;DHT22;1320;48.128;11.592;2022-12-18T14:56:37;-1.50;99.90
2621;DHT22;1320;48.128;11.592;2022-12-18T14:59:22;-1.60;99.90
2621;DHT22;1320;48.128;11.592;2022-12-18T15:04:32;-1.70;99.90
2621;DHT22;1320;48.128;11.592;2022-12-18T15:07:16;-1.70;99.90
2621;DHT22;1320;48.128;11.592;2022-12-18T15:09:44;-1.70;99.90
2621;DHT22;1320;48.128;11.592;2022-12-18T15:14:59;-1.70;99.90
2621;DHT22;1320;48.128;11.592;2022-12-18T15:17:24;-1.80;99.90
2621;DHT22;1320;48.128;11.592;2022-12-18T15:19:53;-1.70;99.90
2621;DHT22;1320;48.128;11.592;2022-12-18T15:22:35;-1.80;99.90
2621;DHT22;1320;48.128;11.592;2022-12-18T15:25:02;-1.80;99.90
2621;DHT22;1320;48.128;11.592;2022-12-18T15:27:34;-1.80;99.90
2621;DHT22;1320;48.128;11.592;2022-12-18T15:32:36;-1.80;99.90
2621;DHT22;1320;48.128;11.592;2022-12-18T15:35:17;-1.80;99.90
2621;DHT22;1320;48.128;11.592;2022-12-18T15:37:43;-1.80;99.90
2621;DHT22;1320;48.128;11.592;2022-12-18T15:40:14;-1.80;99.90
2621;DHT22;1320;48.128;11.592;2022-12-18T15:42:41;-1.80;99.90
2621;DHT22;1320;48.128;11.592;2022-12-18T15:45:25;-1.80;99.90
2621;DHT22;1320;48.128;11.592;2022-12-18T15:47:52;-1.90;99.90
2621;DHT22;1320;48.128;11.592;2022-12-18T15:50:18;-1.90;99.90
2621;DHT22;1320;48.128;11.592;2022-12-18T15:52:45;-1.90;99.90
2621;DHT22;1320;48.128;11.592;2022-12-18T15:55:13;-2.00;99.90
2621;DHT22;1320;48.128;11.592;2022-12-18T15:57:58;-1.90;99.90
2621;DHT22;1320;48.128;11.592;2022-12-18T16:00:24;-1.90;99.90
2621;DHT22;1320;48.128;11.592;2022-12-18T16:02:52;-1.90;99.90
2621;DHT22;1320;48.128;11.592;2022-12-18T16:05:19;-1.90;99.90
2621;DHT22;1320;48.128;11.592;2022-12-18T16:07:46;-1.90;99.90
2621;DHT22;1320;48.128;11.592;2022-12-18T16:10:13;-1.90;99.90
2621;DHT22;1320;48.128;11.592;2022-12-18T16:12:39;-2.00;99.90
2621;DHT22;1320;48.128;11.592;2022-12-18T16:15:06;-2.00;99.90
2621;DHT22;1320;48.128;11.592;2022-12-18T16:17:32;-2.00;99.90
2621;DHT22;1320;48.128;11.592;2022-12-18T16:19:58;-2.00;99.90
2621;DHT22;1320;48.128;11.592;2022-12-18T16:22:27;-2.00;99.90
2621;DHT22;1320;48.128;11.592;2022-12-18T16:24:54;-2.00;99.90
2621;DHT22;1320;48.128;11.592;2022-12-18T16:27:20;-2.10;99.90
2621;DHT22;1320;48.128;11.592;2022-12-18T16:29:46;-2.10;99.90
2621;DHT22;1320;48.128;11.592;2022-12-18T16:32:18;-2.10;99.90
2621;DHT22;1320;48.128;11.592;2022-12-18T16:34:44;-2.10;99.90
2621;DHT22;1320;48.128;11.592;2022-12-18T16:37:12;-2.10;99.90
2621;DHT22;1320;48.128;11.592;2022-12-18T16:39:38;-2.10;99.90
2621;DHT22;1320;48.128;11.592;2022-12-18T16:42:16;-2.10;99.90
2621;DHT22;1320;48.128;11.592;2022-12-18T16:44:44;-2.20;99.90
2621;DHT22;1320;48.128;11.592;2022-12-18T16:47:10;-2.30;99.90
2621;DHT22;1320;48.128;11.592;2022-12-18T16:49:36;-2.30;99.90
2621;DHT22;1320;48.128;11.592;2022-12-18T16:52:03;-2.30;99.90
2621;DHT22;1320;48.128;11.592;2022-12-18T16:54:29;-2.20;99.90
2621;DHT22;1320;48.128;11.592;2022-12-18T16:56:55;-2.20;99.90
2621;DHT22;1320;48.128;11.592;2022-12-18T16:59:21;-2.20;99.90
2621;DHT22;1320;48.128;11.592;2022-12-18T17:01:47;-2.20;99.90
2621;DHT22;1320;48.128;11.592;2022-12-18T17:04:13;-2.10;99.90
2621;DHT22;1320;48.128;11.592;2022-12-18T17:06:41;-2.10;99.90
2621;DHT22;1320;48.128;11.592;2022-12-18T17:09:10;-2.20;99.90
2621;DHT22;1320;48.128;11.592;2022-12-18T17:11:36;-2.20;99.90
2621;DHT22;1320;48.128;11.592;2022-12-18T17:14:09;-2.10;99.90
2621;DHT22;1320;48.128;11.592;2022-12-18T17:16:36;-2.10;99.90
2621;DHT22;1320;48.128;11.592;2022-12-18T17:19:02;-2.10;99.90
2621;DHT22;1320;48.128;11.592;2022-12-18T17:21:28;-2.10;99.90
2621;DHT22;1320;48.128;11.592;2022-12-18T17:23:54;-2.00;99.90
2621;DHT22;1320;48.128;11.592;2022-12-18T17:26:19;-2.00;99.90
2621;DHT22;1320;48.128;11.592;2022-12-18T17:28:45;-2.00;99.90
2621;DHT22;1320;48.128;11.592;2022-12-18T17:31:18;-2.00;99.90
2621;DHT22;1320;48.128;11.592;2022-12-18T17:33:45;-1.90;99.90
2621;DHT22;1320;48.128;11.592;2022-12-18T17:36:11;-2.00;99.90
2621;DHT22;1320;48.128;11.592;2022-12-18T17:38:38;-2.00;99.90
2621;DHT22;1320;48.128;11.592;2022-12-18T17:41:05;-2.00;99.90
2621;DHT22;1320;48.128;11.592;2022-12-18T17:43:31;-2.00;99.90
2621;DHT22;1320;48.128;11.592;2022-12-18T17:46:06;-2.00;99.90
2621;DHT22;1320;48.128;11.592;2022-12-18T17:48:32;-2.00;99.90
2621;DHT22;1320;48.128;11.592;2022-12-18T17:51:02;-2.00;99.90
2621;DHT22;1320;48.128;11.592;2022-12-18T17:53:29;-2.00;99.90
2621;DHT22;1320;48.128;11.592;2022-12-18T17:55:56;-2.00;99.90
2621;DHT22;1320;48.128;11.592;2022-12-18T17:58:22;-2.00;99.90
2621;DHT22;1320;48.128;11.592;2022-12-18T18:00:48;-2.00;99.90
2621;DHT22;1320;48.128;11.592;2022-12-18T18:03:14;-2.00;99.90
2621;DHT22;1320;48.128;11.592;2022-12-18T18:05:40;-2.10;99.90
2621;DHT22;1320;48.128;11.592;2022-12-18T18:08:06;-2.10;99.90
2621;DHT22;1320;48.128;11.592;2022-12-18T18:10:35;-2.20;99.90